Leon — D5BH4 — position and weather

sailwx.info

Track history (hours):
 
Tides and Currents Weather Stations Pressure Air Temp Water Temp Dewpoint Dewpoint Depression Visibility Wind Speed Wind Dir Waves Ship Positions

Leon

Last reported at 2016-May-13 11:05 UTC. Time now 2016-May-26 06:56 UTC.
Position N 59°31' E 022°28'.
Warning: this ship's position is 12 days out of date.

Length 95 m; draft 5.2 m.

Type: Ship (hazmat cat C). MMSI: 636015519.

Date/timePositionNaut miles runAvg speedWind from/ knotsBaromVisibWave heightAir tempDewpointWater temp
2016-May-13 11:05N 59°31' E 022°28'24 9.6
2016-May-13 08:33N 59°36' E 023°15'10 9.6
2016-May-13 07:33N 59°37' E 023°34'  
2016-May-09 00:33N 59°30' E 023°18'9 9.0
2016-May-08 23:33N 59°28' E 023°01'30 9.3
2016-May-08 20:20N 59°14' E 022°08'291 8.4
2016-May-07 09:33N 55°46' E 015°49'9 9.3
2016-May-07 08:33N 55°41' E 015°35'9 9.2
2016-May-07 07:33N 55°37' E 015°20'9 9.4
2016-May-07 06:33N 55°33' E 015°05'9 9.4
2016-May-07 05:33N 55°29' E 014°50'9 9.3
2016-May-07 04:33N 55°23' E 014°38'9 9.4
2016-May-07 03:33N 55°15' E 014°28'9 8.8
2016-May-07 02:33N 55°10' E 014°16'9 8.6
2016-May-07 01:33N 55°09' E 014°01'9 8.8
2016-May-07 00:32N 55°10' E 013°45'9 9.2
2016-May-06 23:33N 55°11' E 013°30'9 9.1
2016-May-06 22:33N 55°12' E 013°14'9 8.9
2016-May-06 21:33N 55°14' E 012°59'9 8.8
2016-May-06 20:33N 55°16' E 012°44'6 6.4
2016-May-06 19:33N 55°22' E 012°38'9 8.9
2016-May-06 18:33N 55°30' E 012°43'9 8.5
2016-May-06 17:33N 55°37' E 012°53'7 7.2
2016-May-06 16:33N 55°44' E 012°51'9 8.7
2016-May-06 15:33N 55°51' E 012°41'8 8.2
2016-May-06 14:34N 55°59' E 012°41'8 7.6
2016-May-06 13:33N 56°06' E 012°34'8 7.7
2016-May-06 12:33N 56°10' E 012°23'10 9.3
2016-May-06 11:31N 56°15' E 012°08'8 8.4
2016-May-06 10:33N 56°22' E 012°01'9 8.9
2016-May-06 09:32N 56°31' E 011°58'9 9.3
2016-May-06 08:33N 56°40' E 011°55'10 9.6
2016-May-06 07:33N 56°49' E 011°49'10 9.8
2016-May-06 06:33N 56°59' E 011°43'10 9.7
2016-May-06 05:33N 57°08' E 011°37'9 9.4
2016-May-06 04:33N 57°17' E 011°36'10 9.6
2016-May-06 03:33N 57°27' E 011°34'9 8.7
2016-May-06 02:33N 57°35' E 011°38'9 9.2
2016-May-06 01:33N 57°41' E 011°51'1 0.7
2016-May-06 00:34N 57°41' E 011°53'0 0.0
2016-May-05 23:33N 57°41' E 011°53'0 0.0
2016-May-05 22:33N 57°41' E 011°53'0 0.0
2016-May-05 21:33N 57°41' E 011°53'0 0.0
2016-May-05 20:33N 57°41' E 011°53'0 0.0
2016-May-05 19:33N 57°41' E 011°53'0 0.0
2016-May-05 18:33N 57°41' E 011°53'0 0.0
2016-May-05 17:33N 57°41' E 011°53'0 0.0
2016-May-05 16:33N 57°41' E 011°53'0 0.0
2016-May-05 15:33N 57°41' E 011°53'0 0.0
2016-May-05 14:33N 57°41' E 011°53'0 0.0
2016-May-05 13:33N 57°41' E 011°53'0 0.0
2016-May-05 12:33N 57°41' E 011°53'0 0.0
2016-May-05 11:33N 57°41' E 011°53'0 0.0
2016-May-05 10:33N 57°41' E 011°53'0 0.0
2016-May-05 09:33N 57°41' E 011°53'0 0.0
2016-May-05 08:33N 57°41' E 011°53'0 0.0
2016-May-05 07:33N 57°41' E 011°53'0 0.0
2016-May-05 06:33N 57°41' E 011°53'0 0.0
2016-May-05 05:33N 57°41' E 011°53'0 0.0
2016-May-05 04:33N 57°41' E 011°53'0 0.0
2016-May-05 03:33N 57°41' E 011°53'0 0.0
2016-May-05 02:33N 57°41' E 011°53'0 0.0
2016-May-05 01:33N 57°41' E 011°53'0 0.0
2016-May-05 00:33N 57°41' E 011°53'0 0.0
2016-May-04 23:33N 57°41' E 011°53'0 0.0
2016-May-04 22:33N 57°41' E 011°53'0 0.0
2016-May-04 21:33N 57°41' E 011°53'4 3.7
2016-May-04 20:34N 57°40' E 011°47'8 8.4
2016-May-04 19:33N 57°38' E 011°31'9 8.9
2016-May-04 18:33N 57°43' E 011°17'8 8.5
2016-May-04 17:34N 57°48' E 011°04'9 8.8
2016-May-04 16:33N 57°52' E 010°50'8 8.2
2016-May-04 15:34N 57°54' E 010°35'8 8.3
2016-May-04 14:33N 57°55' E 010°19'9 8.5
2016-May-04 13:33N 57°55' E 010°03'1010.5
2016-May-04 12:34N 57°51' E 009°45'19710.3
2016-May-03 17:30N 55°06' E 006°32'1010.1
2016-May-03 16:33N 54°57' E 006°23'  
Track history (hours):
 
Tides and Currents Weather Stations Pressure Air Temp Water Temp Dewpoint Dewpoint Depression Visibility Wind Speed Wind Dir Waves Ship Positions

Leon

Last reported at 2016-May-13 11:05 UTC. Time now 2016-May-26 06:56 UTC.
Position N 59°31' E 022°28'.
Warning: this ship's position is 12 days out of date.

Length 95 m; draft 5.2 m.

Type: Ship (hazmat cat C). MMSI: 636015519.

Date/timePositionNaut miles runAvg speedWind from/ knotsBaromVisibWave heightAir tempDewpointWater temp
2016-May-13 11:05N 59°31' E 022°28'24 9.6
2016-May-13 08:33N 59°36' E 023°15'10 9.6
2016-May-13 07:33N 59°37' E 023°34'  
2016-May-09 00:33N 59°30' E 023°18'9 9.0
2016-May-08 23:33N 59°28' E 023°01'30 9.3
2016-May-08 20:20N 59°14' E 022°08'291 8.4
2016-May-07 09:33N 55°46' E 015°49'9 9.3
2016-May-07 08:33N 55°41' E 015°35'9 9.2
2016-May-07 07:33N 55°37' E 015°20'9 9.4
2016-May-07 06:33N 55°33' E 015°05'9 9.4
2016-May-07 05:33N 55°29' E 014°50'9 9.3
2016-May-07 04:33N 55°23' E 014°38'9 9.4
2016-May-07 03:33N 55°15' E 014°28'9 8.8
2016-May-07 02:33N 55°10' E 014°16'9 8.6
2016-May-07 01:33N 55°09' E 014°01'9 8.8
2016-May-07 00:32N 55°10' E 013°45'9 9.2
2016-May-06 23:33N 55°11' E 013°30'9 9.1
2016-May-06 22:33N 55°12' E 013°14'9 8.9
2016-May-06 21:33N 55°14' E 012°59'9 8.8
2016-May-06 20:33N 55°16' E 012°44'6 6.4
2016-May-06 19:33N 55°22' E 012°38'9 8.9
2016-May-06 18:33N 55°30' E 012°43'9 8.5
2016-May-06 17:33N 55°37' E 012°53'7 7.2
2016-May-06 16:33N 55°44' E 012°51'9 8.7
2016-May-06 15:33N 55°51' E 012°41'8 8.2
2016-May-06 14:34N 55°59' E 012°41'8 7.6
2016-May-06 13:33N 56°06' E 012°34'8 7.7
2016-May-06 12:33N 56°10' E 012°23'10 9.3
2016-May-06 11:31N 56°15' E 012°08'8 8.4
2016-May-06 10:33N 56°22' E 012°01'9 8.9
2016-May-06 09:32N 56°31' E 011°58'9 9.3
2016-May-06 08:33N 56°40' E 011°55'10 9.6
2016-May-06 07:33N 56°49' E 011°49'10 9.8
2016-May-06 06:33N 56°59' E 011°43'10 9.7
2016-May-06 05:33N 57°08' E 011°37'9 9.4
2016-May-06 04:33N 57°17' E 011°36'10 9.6
2016-May-06 03:33N 57°27' E 011°34'9 8.7
2016-May-06 02:33N 57°35' E 011°38'9 9.2
2016-May-06 01:33N 57°41' E 011°51'1 0.7
2016-May-06 00:34N 57°41' E 011°53'0 0.0
2016-May-05 23:33N 57°41' E 011°53'0 0.0
2016-May-05 22:33N 57°41' E 011°53'0 0.0
2016-May-05 21:33N 57°41' E 011°53'0 0.0
2016-May-05 20:33N 57°41' E 011°53'0 0.0
2016-May-05 19:33N 57°41' E 011°53'0 0.0
2016-May-05 18:33N 57°41' E 011°53'0 0.0
2016-May-05 17:33N 57°41' E 011°53'0 0.0
2016-May-05 16:33N 57°41' E 011°53'0 0.0
2016-May-05 15:33N 57°41' E 011°53'0 0.0
2016-May-05 14:33N 57°41' E 011°53'0 0.0
2016-May-05 13:33N 57°41' E 011°53'0 0.0
2016-May-05 12:33N 57°41' E 011°53'0 0.0
2016-May-05 11:33N 57°41' E 011°53'0 0.0
2016-May-05 10:33N 57°41' E 011°53'0 0.0
2016-May-05 09:33N 57°41' E 011°53'0 0.0
2016-May-05 08:33N 57°41' E 011°53'0 0.0
2016-May-05 07:33N 57°41' E 011°53'0 0.0
2016-May-05 06:33N 57°41' E 011°53'0 0.0
2016-May-05 05:33N 57°41' E 011°53'0 0.0
2016-May-05 04:33N 57°41' E 011°53'0 0.0
2016-May-05 03:33N 57°41' E 011°53'0 0.0
2016-May-05 02:33N 57°41' E 011°53'0 0.0
2016-May-05 01:33N 57°41' E 011°53'0 0.0
2016-May-05 00:33N 57°41' E 011°53'0 0.0
2016-May-04 23:33N 57°41' E 011°53'0 0.0
2016-May-04 22:33N 57°41' E 011°53'0 0.0
2016-May-04 21:33N 57°41' E 011°53'4 3.7
2016-May-04 20:34N 57°40' E 011°47'8 8.4
2016-May-04 19:33N 57°38' E 011°31'9 8.9
2016-May-04 18:33N 57°43' E 011°17'8 8.5
2016-May-04 17:34N 57°48' E 011°04'9 8.8
2016-May-04 16:33N 57°52' E 010°50'8 8.2
2016-May-04 15:34N 57°54' E 010°35'8 8.3
2016-May-04 14:33N 57°55' E 010°19'9 8.5
2016-May-04 13:33N 57°55' E 010°03'1010.5
2016-May-04 12:34N 57°51' E 009°45'19710.3
2016-May-03 17:30N 55°06' E 006°32'1010.1
2016-May-03 16:33N 54°57' E 006°23'  

Dump ship's entire track history